Time;durP1;ratioP1;P1;durP2;ratioP2;P2;SDS_P1;SDS_P2;PMS_P1;PMS_P2;Temp;Humidity;BMP_temperature;BMP_pressure;BME280_temperature;BME280_humidity;BME280_pressure;Samples;Min_cycle;Max_cycle;Signal;HPM_P1;HPM_P2
2022/12/04 00:01:41;;;;;;;5.45;4.53;;;;;;;0.86;100.00;102122.81;5059651;28;20029;-79
2022/12/04 00:04:07;;;;;;;12.07;5.40;;;;;;;0.84;100.00;102109.88;5058127;28;20032;-78
2022/12/04 00:06:32;;;;;;;5.13;3.83;;;;;;;0.91;100.00;102120.88;5056725;28;20036;-77
2022/12/04 00:08:59;;;;;;;7.50;5.10;;;;;;;0.87;100.00;102114.97;5059235;28;20036;-78
2022/12/04 00:11:28;;;;;;;6.88;4.25;;;;;;;0.75;100.00;102121.44;5059300;28;20061;-79
2022/12/04 00:13:53;;;;;;;9.05;4.70;;;;;;;0.90;100.00;102114.00;5056769;28;20105;-80
2022/12/04 00:16:23;;;;;;;7.53;3.10;;;;;;;0.96;100.00;102113.78;5057345;28;20060;-79
2022/12/04 00:18:48;;;;;;;6.13;4.18;;;;;;;0.78;100.00;102110.09;5058999;28;20393;-79
2022/12/04 00:21:16;;;;;;;13.07;5.78;;;;;;;0.81;100.00;102117.78;5056631;28;20125;-78
2022/12/04 00:23:42;;;;;;;7.65;4.93;;;;;;;0.68;100.00;102106.97;5058846;28;20033;-80
2022/12/04 00:26:19;;;;;;;18.17;5.50;;;;;;;0.82;100.00;102122.91;5057571;28;20059;-78
2022/12/04 00:28:45;;;;;;;5.40;4.57;;;;;;;0.77;100.00;102124.00;5058523;28;20454;-80
2022/12/04 00:31:14;;;;;;;11.27;5.85;;;;;;;0.68;100.00;102114.78;5059591;28;20113;-79
2022/12/04 00:33:40;;;;;;;8.73;5.30;;;;;;;0.51;100.00;102101.53;5056003;28;20036;-80
2022/12/04 00:36:09;;;;;;;10.20;3.90;;;;;;;0.75;100.00;102118.00;5057032;28;20384;-78
2022/12/04 00:38:35;;;;;;;5.63;3.42;;;;;;;0.68;100.00;102119.97;5074345;28;20028;-79
2022/12/04 00:41:01;;;;;;;7.03;4.38;;;;;;;0.55;100.00;102121.31;5058589;28;20024;-78
2022/12/04 00:43:27;;;;;;;8.15;5.75;;;;;;;0.48;100.00;102125.00;5057856;28;20064;-79
2022/12/04 00:45:52;;;;;;;5.72;3.42;;;;;;;0.42;100.00;102107.91;5058389;28;20013;-79
2022/12/04 00:48:18;;;;;;;10.55;3.85;;;;;;;0.37;100.00;102094.22;5042623;28;20025;-78
2022/12/04 00:50:44;;;;;;;10.27;4.47;;;;;;;0.39;100.00;102108.88;5063772;28;20032;-80
2022/12/04 00:53:09;;;;;;;6.35;4.25;;;;;;;0.45;100.00;102106.94;5058854;28;20058;-79
2022/12/04 00:55:39;;;;;;;8.77;4.53;;;;;;;0.39;100.00;102106.28;5056563;28;20032;-80
2022/12/04 00:58:06;;;;;;;12.98;6.70;;;;;;;0.34;100.00;102105.56;5064603;28;20056;-78
2022/12/04 01:00:41;;;;;;;3.67;3.13;;;;;;;0.38;100.00;102120.16;5040979;28;20395;-79
2022/12/04 01:03:08;;;;;;;10.25;7.32;;;;;;;0.35;100.00;102112.47;5057240;28;20060;-80
2022/12/04 01:05:39;;;;;;;7.60;5.30;;;;;;;0.27;100.00;102088.50;5058690;28;20476;-80
2022/12/04 01:08:04;;;;;;;6.72;3.95;;;;;;;0.52;100.00;102111.00;5056527;28;20032;-77
2022/12/04 01:10:30;;;;;;;4.20;3.75;;;;;;;0.27;100.00;102098.91;5040457;28;20494;-79
2022/12/04 01:12:55;;;;;;;8.02;5.93;;;;;;;0.29;100.00;102106.63;5056999;28;20036;-79
2022/12/04 01:15:20;;;;;;;6.10;4.82;;;;;;;0.36;100.00;102100.31;5042549;28;20159;-80
2022/12/04 01:17:46;;;;;;;13.18;6.22;;;;;;;0.44;100.00;102110.47;5041118;28;20132;-79
2022/12/04 01:20:13;;;;;;;13.23;6.95;;;;;;;0.22;100.00;102074.84;5048852;28;20052;-79
2022/12/04 01:22:38;;;;;;;6.20;5.53;;;;;;;0.35;100.00;102094.28;5057715;28;20119;-79
2022/12/04 01:25:04;;;;;;;3.10;2.90;;;;;;;0.32;100.00;102089.19;5039489;28;20123;-79
2022/12/04 01:27:30;;;;;;;8.23;5.28;;;;;;;0.34;100.00;102100.38;5041181;28;20084;-79
2022/12/04 01:29:55;;;;;;;6.03;4.32;;;;;;;0.36;100.00;102101.16;5058224;28;20037;-79
2022/12/04 01:32:20;;;;;;;8.63;5.80;;;;;;;0.42;100.00;102114.88;5024601;28;20448;-79
2022/12/04 01:34:46;;;;;;;8.93;5.13;;;;;;;0.45;100.00;102112.97;5055904;28;20025;-78
2022/12/04 01:37:11;;;;;;;7.93;4.45;;;;;;;0.39;100.00;102088.09;5057888;28;20040;-79
2022/12/04 01:39:37;;;;;;;13.73;7.88;;;;;;;0.33;100.00;102093.50;5055493;28;20029;-78
2022/12/04 01:42:03;;;;;;;6.28;5.60;;;;;;;0.09;100.00;102060.59;5056316;28;20041;-80
2022/12/04 01:44:30;;;;;;;9.55;7.65;;;;;;;0.33;100.00;102084.88;5057009;28;20017;-79
2022/12/04 01:46:59;;;;;;;15.80;6.25;;;;;;;0.35;100.00;102089.09;5055288;28;20039;-79
2022/12/04 01:49:42;;;;;;;15.13;6.15;;;;;;;0.33;100.00;102088.31;5063954;28;20029;-78
2022/12/04 01:52:10;;;;;;;7.43;6.82;;;;;;;0.35;100.00;102090.84;5058108;28;20476;-79
2022/12/04 01:54:40;;;;;;;5.50;5.00;;;;;;;0.18;100.00;102070.66;5057214;28;20033;-79
2022/12/04 01:57:13;;;;;;;11.40;6.35;;;;;;;0.33;100.00;102087.47;5061096;28;20044;-80
2022/12/04 01:59:44;;;;;;;13.30;5.72;;;;;;;0.37;100.00;102084.69;5061695;28;20050;-80
2022/12/04 02:02:13;;;;;;;17.52;6.50;;;;;;;0.22;100.00;102080.03;5061560;28;20030;-78
2022/12/04 02:04:39;;;;;;;10.63;6.32;;;;;;;0.39;100.00;102090.69;5062331;28;20029;-78
2022/12/04 02:07:05;;;;;;;8.88;6.05;;;;;;;0.23;100.00;102071.34;5049652;28;20033;-78
2022/12/04 02:09:31;;;;;;;10.30;8.45;;;;;;;0.14;100.00;102076.84;5060550;28;20043;-78
2022/12/04 02:12:09;;;;;;;10.27;3.95;;;;;;;0.07;100.00;102067.59;5044268;28;20066;-79
2022/12/04 02:15:31;;;;;;;13.82;6.18;;;;;;;0.15;100.00;102088.91;5060785;28;20446;-80
2022/12/04 02:18:05;;;;;;;;;;;;;;;0.21;100.00;102083.53;4989047;28;20070;-80
2022/12/04 02:20:39;;;;;;;5.80;5.25;;;;;;;0.34;100.00;102087.38;4980402;28;19960;-79
2022/12/04 02:23:19;;;;;;;4.28;3.63;;;;;;;0.48;100.00;102081.72;4988235;28;20036;-79
2022/12/04 02:26:03;;;;;;;9.33;5.43;;;;;;;0.44;100.00;102095.72;4989070;28;20080;-79
2022/12/04 02:28:56;;;;;;;8.38;5.72;;;;;;;0.30;100.00;102072.81;4980637;28;20027;-79
2022/12/04 02:31:31;;;;;;;12.00;6.13;;;;;;;0.39;100.00;102072.50;4979835;28;20033;-78
2022/12/04 02:34:03;;;;;;;5.47;3.40;;;;;;;0.42;100.00;102087.13;4988627;28;20114;-79
2022/12/04 02:36:33;;;;;;;8.85;5.57;;;;;;;0.53;100.00;102071.16;4987653;28;20042;-79
2022/12/04 02:39:10;;;;;;;10.18;4.40;;;;;;;0.24;100.00;102077.38;4989760;28;20113;-79
2022/12/04 02:41:42;;;;;;;8.65;4.63;;;;;;;0.34;100.00;102083.94;4981676;28;20609;-77
2022/12/04 02:44:28;;;;;;;8.60;5.75;;;;;;;0.27;100.00;102078.13;4991413;28;20026;-78
2022/12/04 02:46:58;;;;;;;11.25;5.72;;;;;;;0.23;100.00;102086.06;4975682;28;20529;-80
2022/12/04 02:49:36;;;;;;;13.65;7.30;;;;;;;0.17;100.00;102082.81;5056457;28;20041;-80
2022/12/04 02:52:07;;;;;;;10.10;6.70;;;;;;;0.12;100.00;102076.06;5061958;28;20033;-78
2022/12/04 02:54:41;;;;;;;8.13;4.40;;;;;;;0.18;100.00;102073.25;5062582;28;20072;-79
2022/12/04 02:57:12;;;;;;;7.30;6.57;;;;;;;0.20;100.00;102079.25;5067587;28;20480;-78
2022/12/04 02:59:41;;;;;;;7.70;5.80;;;;;;;0.04;100.00;102075.47;5062131;28;20025;-79
2022/12/04 03:02:11;;;;;;;7.47;6.75;;;;;;;0.04;100.00;102081.50;5063015;28;20033;-80
2022/12/04 03:04:38;;;;;;;5.63;3.40;;;;;;;0.06;100.00;102052.91;5058271;28;20025;-80
2022/12/04 03:07:16;;;;;;;8.25;6.18;;;;;;;0.17;100.00;102082.81;5056862;28;20294;-80
2022/12/04 03:09:46;;;;;;;8.25;5.60;;;;;;;0.17;100.00;102092.31;5064919;28;20046;-80
2022/12/04 03:12:17;;;;;;;8.70;6.67;;;;;;;0.11;100.00;102077.81;5063669;28;20029;-80
2022/12/04 03:14:47;;;;;;;;;;;;;;;0.03;100.00;102079.81;5066032;28;20305;-80
2022/12/04 03:17:28;;;;;;;10.10;4.90;;;;;;;0.12;100.00;102065.66;5061153;28;19966;-80
2022/12/04 03:19:57;;;;;;;;;;;;;;;0.16;100.00;102085.44;5066721;28;20090;-80
2022/12/04 03:22:23;;;;;;;6.03;4.53;;;;;;;0.21;100.00;102083.53;5064981;28;20011;-79
2022/12/04 03:24:52;;;;;;;15.02;5.63;;;;;;;0.17;100.00;102080.19;5062016;28;20028;-81
2022/12/04 03:27:47;;;;;;;6.65;4.90;;;;;;;-0.08;100.00;102072.38;5065568;28;20048;-79
2022/12/04 03:30:17;;;;;;;9.95;4.90;;;;;;;0.08;100.00;102079.66;5071640;28;20032;-79
2022/12/04 03:32:47;;;;;;;12.10;7.57;;;;;;;0.09;100.00;102091.75;5060231;28;20024;-79
2022/12/04 03:35:19;;;;;;;9.73;6.50;;;;;;;0.13;100.00;102090.72;5059346;28;20503;-79
2022/12/04 03:38:13;;;;;;;19.77;7.35;;;;;;;0.11;100.00;102082.13;5057978;28;20024;-78
2022/12/04 03:40:56;;;;;;;15.63;6.55;;;;;;;0.23;100.00;102086.91;5058099;28;20024;-78
2022/12/04 03:43:30;;;;;;;12.82;6.95;;;;;;;0.25;100.00;102082.53;5057731;28;20040;-79
2022/12/04 03:46:01;;;;;;;10.77;5.88;;;;;;;0.20;100.00;102071.44;5073793;28;20028;-79
2022/12/04 03:48:37;;;;;;;6.35;4.43;;;;;;;0.31;100.00;102090.09;5059120;28;20024;-79
2022/12/04 03:51:41;;;;;;;6.10;4.47;;;;;;;0.33;100.00;102103.88;5058919;28;20052;-78
2022/12/04 03:54:21;;;;;;;8.48;6.05;;;;;;;0.17;100.00;102089.72;5051344;28;20071;-79
2022/12/04 03:56:59;;;;;;;10.88;5.88;;;;;;;0.16;100.00;102077.66;5058381;28;20035;-79
2022/12/04 03:59:35;;;;;;;10.35;5.47;;;;;;;0.12;100.00;102099.41;5065139;28;20027;-80
2022/12/04 04:02:02;;;;;;;9.85;7.78;;;;;;;0.20;100.00;102092.22;5058518;28;20034;-80
2022/12/04 04:04:32;;;;;;;17.40;14.85;;;;;;;-0.06;100.00;102070.59;5058045;28;20035;-79
2022/12/04 04:07:19;;;;;;;13.45;5.68;;;;;;;-0.01;100.00;102070.44;5060200;28;20104;-79
2022/12/04 04:09:49;;;;;;;17.30;7.88;;;;;;;0.12;100.00;102078.66;5058755;28;20032;-78
2022/12/04 04:12:19;;;;;;;14.07;7.35;;;;;;;0.12;100.00;102076.91;5059632;28;20033;-79
2022/12/04 04:25:56;;;;;;;13.05;6.03;;;;;;;-0.13;100.00;102066.50;5058772;28;20063;-79
2022/12/04 04:28:30;;;;;;;9.27;8.10;;;;;;;0.16;100.00;102091.47;5056424;28;20020;-79
2022/12/04 04:31:21;;;;;;;13.75;6.70;;;;;;;0.10;100.00;102083.03;5057818;28;20055;-79
2022/12/04 04:34:05;;;;;;;;;;;;;;;0.17;100.00;102088.00;5058372;28;20061;-78
2022/12/04 04:36:40;;;;;;;9.02;7.63;;;;;;;-0.01;100.00;102088.59;5057809;28;20279;-79
2022/12/04 04:39:35;;;;;;;14.25;10.05;;;;;;;-0.06;100.00;102086.16;5057845;28;20063;-79
2022/12/04 04:42:03;;;;;;;8.25;7.47;;;;;;;0.02;100.00;102082.44;5055936;28;20036;-80
2022/12/04 04:44:54;;;;;;;17.38;9.18;;;;;;;0.09;100.00;102089.16;5057251;28;20074;-79
2022/12/04 04:47:36;;;;;;;10.50;9.50;;;;;;;-0.12;100.00;102088.94;5058036;28;20025;-80
2022/12/04 04:50:06;;;;;;;13.15;7.15;;;;;;;0.06;100.00;102097.03;5057906;28;20064;-80
2022/12/04 04:52:32;;;;;;;10.93;7.10;;;;;;;-0.01;100.00;102080.81;5059010;28;20028;-79
2022/12/04 04:55:00;;;;;;;16.20;10.70;;;;;;;-0.01;100.00;102093.78;5056418;28;20036;-79
2022/12/04 04:57:32;;;;;;;11.10;6.65;;;;;;;0.06;100.00;102099.63;5056526;28;20047;-79
2022/12/04 04:59:58;;;;;;;11.70;7.70;;;;;;;0.09;100.00;102104.72;5058728;28;20029;-79
2022/12/04 05:02:25;;;;;;;9.45;8.52;;;;;;;0.03;100.00;102102.34;5056756;28;20039;-78
2022/12/04 05:04:51;;;;;;;13.80;8.80;;;;;;;-0.29;100.00;102060.97;5059149;28;20055;-79
2022/12/04 05:07:16;;;;;;;20.25;7.32;;;;;;;0.00;100.00;102098.09;5024080;28;20109;-79
2022/12/04 05:09:42;;;;;;;8.88;6.55;;;;;;;-0.11;100.00;102088.06;5057869;28;20028;-79
2022/12/04 05:12:07;;;;;;;17.63;10.93;;;;;;;0.01;100.00;102102.38;5023750;28;20047;-79
2022/12/04 05:14:33;;;;;;;16.00;9.55;;;;;;;-0.13;100.00;102094.19;5057849;28;20036;-80
2022/12/04 05:16:58;;;;;;;18.48;7.85;;;;;;;-0.05;100.00;102089.59;5056992;28;20029;-79
2022/12/04 05:22:08;;;;;;;12.10;7.57;;;;;;;-0.10;100.00;102110.50;5055966;28;20043;-79
2022/12/04 05:24:33;;;;;;;18.58;16.85;;;;;;;-0.18;100.00;102112.50;5024591;28;20040;-79
2022/12/04 05:26:59;;;;;;;13.95;11.63;;;;;;;-0.04;100.00;102110.31;5057079;28;20049;-79
2022/12/04 05:29:24;;;;;;;13.82;9.43;;;;;;;-0.13;100.00;102096.78;5041674;28;20036;-79
2022/12/04 05:31:49;;;;;;;14.45;8.90;;;;;;;0.21;100.00;102119.88;5045274;28;20040;-79
2022/12/04 05:34:15;;;;;;;16.17;9.88;;;;;;;0.17;100.00;102120.88;5060906;28;20035;-79
2022/12/04 05:36:40;;;;;;;13.27;9.20;;;;;;;0.09;100.00;102104.72;5059733;28;20484;-79
2022/12/04 05:39:06;;;;;;;14.73;9.43;;;;;;;0.11;100.00;102113.28;5061032;28;20598;-79
2022/12/04 05:41:31;;;;;;;16.20;10.20;;;;;;;0.23;100.00;102123.25;5060705;28;20028;-79
2022/12/04 05:43:56;;;;;;;12.35;7.15;;;;;;;0.12;100.00;102117.59;5060140;28;20076;-79
2022/12/04 05:46:22;;;;;;;14.85;9.07;;;;;;;0.10;100.00;102111.59;5059474;28;20032;-80
2022/12/04 05:48:47;;;;;;;11.43;8.30;;;;;;;0.15;100.00;102120.94;5060221;28;20024;-79
2022/12/04 05:51:12;;;;;;;13.70;8.63;;;;;;;0.09;100.00;102128.94;5060224;28;20075;-79
2022/12/04 05:53:38;;;;;;;10.60;8.10;;;;;;;0.12;100.00;102135.75;5061811;28;20028;-79
2022/12/04 05:56:04;;;;;;;17.95;9.82;;;;;;;0.17;100.00;102123.47;5061201;28;20521;-80
2022/12/04 05:58:30;;;;;;;23.13;21.55;;;;;;;0.06;100.00;102129.00;5059501;28;20044;-79
2022/12/04 06:00:55;;;;;;;17.67;10.68;;;;;;;0.10;100.00;102111.59;5044263;28;20024;-79
2022/12/04 06:03:21;;;;;;;14.73;8.90;;;;;;;0.09;100.00;102122.91;5043852;28;20465;-79
2022/12/04 06:05:47;;;;;;;19.02;8.15;;;;;;;0.19;100.00;102117.31;5062701;28;20464;-79
2022/12/04 06:08:14;;;;;;;8.63;6.20;;;;;;;0.24;100.00;102119.78;5059548;28;20027;-79
2022/12/04 06:10:40;;;;;;;13.10;7.65;;;;;;;0.08;100.00;102110.81;5060601;28;20044;-79
2022/12/04 06:13:06;;;;;;;13.32;9.27;;;;;;;0.16;100.00;102114.00;5060794;28;20506;-79
2022/12/04 06:15:36;;;;;;;15.63;9.40;;;;;;;0.23;100.00;102118.06;5050117;28;20035;-79
2022/12/04 06:18:01;;;;;;;7.30;6.43;;;;;;;0.19;100.00;102114.72;5061818;28;20046;-79
2022/12/04 06:20:27;;;;;;;9.70;8.82;;;;;;;0.26;100.00;102107.59;5060752;28;20033;-79
2022/12/04 06:22:52;;;;;;;9.70;7.88;;;;;;;0.24;100.00;102114.59;5059680;28;20028;-79
2022/12/04 06:25:17;;;;;;;12.43;8.25;;;;;;;0.32;100.00;102116.91;5060510;28;20095;-79
2022/12/04 06:27:43;;;;;;;15.80;8.15;;;;;;;0.32;100.00;102116.91;5058974;28;20076;-79
2022/12/04 06:30:09;;;;;;;13.45;7.65;;;;;;;0.26;100.00;102102.41;5058998;28;20123;-80
2022/12/04 06:32:34;;;;;;;10.15;8.90;;;;;;;0.51;100.00;102122.31;5060222;28;20020;-79
2022/12/04 06:35:00;;;;;;;18.42;9.27;;;;;;;0.43;100.00;102124.34;5042467;28;20140;-78
2022/12/04 06:37:26;;;;;;;18.17;10.35;;;;;;;0.53;100.00;102121.38;5060109;28;20033;-79
2022/12/04 06:39:51;;;;;;;10.02;7.97;;;;;;;0.51;100.00;102114.53;5060340;28;20039;-79
2022/12/04 06:42:17;;;;;;;14.25;9.82;;;;;;;0.34;100.00;102120.31;5060217;28;20048;-79
2022/12/04 06:44:42;;;;;;;21.63;10.45;;;;;;;0.48;100.00;102117.22;5057835;28;20047;-79
2022/12/04 06:47:08;;;;;;;17.23;10.57;;;;;;;0.47;100.00;102120.72;5043713;28;20598;-80
2022/12/04 06:49:34;;;;;;;11.55;8.50;;;;;;;0.45;100.00;102123.38;5059878;28;20123;-79
2022/12/04 06:52:00;;;;;;;12.20;8.75;;;;;;;0.43;100.00;102119.13;5059208;28;20035;-79
2022/12/04 06:54:25;;;;;;;16.02;8.70;;;;;;;0.47;100.00;102121.56;5043267;28;20033;-79
2022/12/04 06:56:51;;;;;;;16.50;11.20;;;;;;;0.46;100.00;102119.91;5066372;28;20098;-78
2022/12/04 06:59:16;;;;;;;17.38;8.98;;;;;;;0.51;100.00;102122.31;5042806;28;20472;-79
2022/12/04 07:01:41;;;;;;;12.77;8.73;;;;;;;0.44;100.00;102121.69;5041475;28;20068;-79
2022/12/04 07:04:07;;;;;;;12.30;8.52;;;;;;;0.51;100.00;102135.31;5026873;28;20098;-80
2022/12/04 07:06:34;;;;;;;9.43;5.68;;;;;;;0.56;100.00;102136.00;5060744;28;20043;-79
2022/12/04 07:09:02;;;;;;;10.18;6.72;;;;;;;0.61;100.00;102134.09;5058966;28;20016;-79
2022/12/04 07:11:28;;;;;;;9.00;8.10;;;;;;;0.66;100.00;102126.97;5057790;28;20036;-79
2022/12/04 07:13:54;;;;;;;10.00;8.35;;;;;;;0.55;100.00;102118.72;5059394;28;20037;-78
2022/12/04 07:16:21;;;;;;;15.63;8.57;;;;;;;0.61;100.00;102128.91;5060371;28;20094;-79
2022/12/04 07:18:49;;;;;;;10.50;8.38;;;;;;;0.65;100.00;102133.06;5058816;28;20029;-79
2022/12/04 07:21:17;;;;;;;12.40;9.20;;;;;;;0.63;100.00;102131.41;5044828;28;20036;-79
2022/12/04 07:23:44;;;;;;;9.77;8.77;;;;;;;0.64;100.00;102115.78;5056959;28;20033;-79
2022/12/04 07:26:12;;;;;;;11.48;7.55;;;;;;;0.63;100.00;102121.88;5059510;28;20064;-79
2022/12/04 07:28:38;;;;;;;9.88;8.85;;;;;;;0.65;100.00;102112.28;5060775;28;20020;-79
2022/12/04 07:31:11;;;;;;;8.40;7.63;;;;;;;0.59;100.00;102121.16;5059771;28;20033;-79
2022/12/04 07:33:37;;;;;;;19.33;7.65;;;;;;;0.54;100.00;102109.22;5059586;28;20063;-79
2022/12/04 07:36:05;;;;;;;11.27;9.07;;;;;;;0.67;100.00;102128.66;5058510;28;20056;-80
2022/12/04 07:38:33;;;;;;;7.07;6.32;;;;;;;0.71;100.00;102129.41;5060361;28;20079;-79
2022/12/04 07:41:00;;;;;;;9.30;6.63;;;;;;;0.60;100.00;102127.19;5062705;28;20024;-77
2022/12/04 07:43:27;;;;;;;10.65;7.20;;;;;;;0.67;100.00;102138.22;5056440;28;20029;-80
2022/12/04 07:45:52;;;;;;;10.07;6.75;;;;;;;0.69;100.00;102132.06;5058093;28;20108;-78
2022/12/04 07:48:17;;;;;;;18.55;8.18;;;;;;;0.70;100.00;102133.75;5056121;28;20055;-78
2022/12/04 07:50:43;;;;;;;13.88;8.40;;;;;;;0.68;100.00;102130.38;5056061;28;20040;-79
2022/12/04 07:53:08;;;;;;;13.80;12.30;;;;;;;0.63;100.00;102116.69;5056378;28;20020;-83
2022/12/04 07:55:34;;;;;;;11.45;5.70;;;;;;;0.65;100.00;102114.88;5024464;28;20025;-78
2022/12/04 07:57:59;;;;;;;11.50;7.00;;;;;;;0.70;100.00;102132.94;5023798;28;20052;-80
2022/12/04 08:00:25;;;;;;;14.93;12.93;;;;;;;0.75;100.00;102131.84;5040297;28;20033;-80
2022/12/04 08:02:50;;;;;;;13.27;7.80;;;;;;;0.76;100.00;102133.56;5055980;28;20400;-79
2022/12/04 08:05:16;;;;;;;8.98;8.25;;;;;;;0.82;100.00;102135.06;5041424;28;20032;-80
2022/12/04 08:07:41;;;;;;;11.57;8.93;;;;;;;0.71;100.00;102125.06;5056953;28;20040;-77
2022/12/04 08:10:07;;;;;;;13.30;12.23;;;;;;;0.77;100.00;102135.22;5063283;28;20566;-80
2022/12/04 08:12:33;;;;;;;11.27;9.57;;;;;;;0.79;100.00;102138.63;5054750;28;20399;-80
2022/12/04 08:14:58;;;;;;;13.70;12.48;;;;;;;0.69;100.00;102119.06;5040690;28;20051;-80
2022/12/04 08:17:24;;;;;;;9.38;8.48;;;;;;;0.74;100.00;102134.47;5054358;28;20029;-79
2022/12/04 08:19:49;;;;;;;11.32;8.68;;;;;;;0.81;100.00;102130.78;5058469;28;20148;-81
2022/12/04 08:22:14;;;;;;;10.98;9.90;;;;;;;0.98;100.00;102153.53;5056555;28;20800;-80
2022/12/04 08:24:40;;;;;;;17.08;15.45;;;;;;;0.84;100.00;102129.81;5056157;28;20036;-80
2022/12/04 08:27:05;;;;;;;9.88;8.93;;;;;;;0.99;100.00;102139.66;5038427;28;20072;-78
2022/12/04 08:29:31;;;;;;;9.73;8.82;;;;;;;1.01;100.00;102138.69;5055226;28;20037;-79
2022/12/04 08:31:57;;;;;;;9.75;8.82;;;;;;;0.87;100.00;102138.38;5056291;28;20032;-81
2022/12/04 08:34:22;;;;;;;16.88;10.48;;;;;;;0.91;100.00;102142.53;5038601;28;20024;-81
2022/12/04 08:36:48;;;;;;;11.20;8.27;;;;;;;1.03;100.00;102162.03;5054203;28;20050;-78
2022/12/04 08:39:13;;;;;;;11.90;8.23;;;;;;;1.07;100.00;102148.03;5057543;28;20032;-80
2022/12/04 08:41:38;;;;;;;11.02;8.20;;;;;;;1.07;100.00;102142.81;5054899;28;20029;-80
2022/12/04 08:44:04;;;;;;;12.13;9.05;;;;;;;1.04;100.00;102140.31;5053200;28;20041;-80
2022/12/04 08:46:29;;;;;;;10.23;7.82;;;;;;;1.08;100.00;102149.72;5022728;28;20037;-80
2022/12/04 08:48:55;;;;;;;10.18;9.18;;;;;;;1.14;100.00;102162.47;5055843;28;20021;-80
2022/12/04 08:51:28;;;;;;;14.80;13.50;;;;;;;1.09;100.00;102154.03;5054646;28;20619;-81
2022/12/04 08:54:06;;;;;;;11.93;9.02;;;;;;;1.18;100.00;102158.88;5049235;28;20088;-80
2022/12/04 08:56:34;;;;;;;12.98;7.90;;;;;;;1.25;100.00;102161.25;5057679;28;20036;-80
2022/12/04 08:58:59;;;;;;;13.57;10.75;;;;;;;1.18;100.00;102145.88;5057957;28;20096;-79
2022/12/04 09:01:26;;;;;;;11.38;7.82;;;;;;;1.36;100.00;102154.72;5051095;28;20056;-80
2022/12/04 09:03:51;;;;;;;14.73;7.93;;;;;;;1.24;100.00;102139.56;5050904;28;20025;-78
2022/12/04 09:06:18;;;;;;;13.63;8.50;;;;;;;1.37;100.00;102158.16;5049108;28;20037;-77
2022/12/04 09:08:44;;;;;;;13.05;7.75;;;;;;;1.36;100.00;102161.69;5059291;28;20043;-80
2022/12/04 09:11:12;;;;;;;11.13;10.05;;;;;;;1.38;100.00;102158.13;5049189;28;20037;-82
2022/12/04 09:13:38;;;;;;;12.38;10.88;;;;;;;1.45;100.00;102153.53;5051201;28;20473;-79
2022/12/04 09:16:07;;;;;;;14.57;13.30;;;;;;;1.33;100.00;102140.97;5053538;28;20123;-79
2022/12/04 09:18:34;;;;;;;9.02;7.95;;;;;;;1.44;100.00;102167.44;5057522;28;20024;-79
2022/12/04 09:21:02;;;;;;;10.05;8.98;;;;;;;1.50;100.00;102162.00;5049226;28;20029;-78
2022/12/04 09:23:28;;;;;;;9.98;6.13;;;;;;;1.61;100.00;102154.63;5048231;28;20579;-75
2022/12/04 09:25:53;;;;;;;10.75;5.65;;;;;;;1.67;100.00;102147.50;5038110;28;20041;-77
2022/12/04 09:28:19;;;;;;;9.75;6.25;;;;;;;1.54;100.00;102147.13;5045674;28;20033;-79
2022/12/04 09:30:45;;;;;;;6.38;5.00;;;;;;;1.68;100.00;102154.38;5052573;28;20043;-83
2022/12/04 09:33:10;;;;;;;19.58;17.85;;;;;;;1.53;100.00;102158.44;5052962;28;20036;-81
2022/12/04 09:35:38;;;;;;;7.53;4.53;;;;;;;1.56;100.00;102177.38;5054223;28;20032;-83
2022/12/04 09:38:03;;;;;;;8.82;4.90;;;;;;;1.64;100.00;102193.53;5062064;28;20044;-83
2022/12/04 09:40:39;;;;;;;7.13;5.97;;;;;;;1.44;100.00;102146.63;5054482;28;20035;-83
2022/12/04 09:43:20;;;;;;;9.90;4.80;;;;;;;1.43;100.00;102147.53;5055838;28;20041;-83
2022/12/04 09:46:01;;;;;;;13.77;6.10;;;;;;;1.61;100.00;102175.47;5054957;28;20382;-83
2022/12/04 09:48:33;;;;;;;25.17;6.32;;;;;;;1.58;100.00;102174.72;5053956;28;20021;-84
2022/12/04 09:51:00;;;;;;;8.23;4.85;;;;;;;1.60;100.00;102172.91;5054473;28;20059;-83
2022/12/04 09:53:33;;;;;;;7.50;4.60;;;;;;;1.73;100.00;102168.06;5053072;28;20031;-84
2022/12/04 09:56:10;;;;;;;13.98;7.28;;;;;;;1.67;100.00;102166.53;5072021;28;20145;-84
2022/12/04 09:58:56;;;;;;;11.32;4.55;;;;;;;1.68;100.00;102170.00;5054406;28;20032;-83
2022/12/04 10:01:37;;;;;;;10.75;6.25;;;;;;;1.72;100.00;102138.59;5062676;28;20036;-82
2022/12/04 10:04:02;;;;;;;10.27;4.47;;;;;;;1.87;100.00;102164.91;5049014;28;20033;-82
2022/12/04 10:06:36;;;;;;;6.88;5.47;;;;;;;1.77;100.00;102149.66;5055139;28;20093;-84
2022/12/04 10:09:12;;;;;;;10.52;6.10;;;;;;;1.78;100.00;102155.72;5055326;28;20107;-82
2022/12/04 10:12:14;;;;;;;6.55;4.35;;;;;;;1.92;100.00;102163.84;5054125;28;20021;-82
2022/12/04 10:14:45;;;;;;;5.28;3.78;;;;;;;1.93;100.00;102162.06;5052882;28;20048;-84
2022/12/04 10:17:29;;;;;;;6.03;4.07;;;;;;;1.80;100.00;102156.50;5059239;28;20044;-83
2022/12/04 10:20:24;;;;;;;3.78;3.05;;;;;;;1.92;100.00;102161.22;5059122;28;20036;-82
2022/12/04 10:22:59;;;;;;;11.18;4.25;;;;;;;1.98;100.00;102160.97;5057862;28;20036;-81
2022/12/04 10:25:27;;;;;;;9.23;3.30;;;;;;;1.95;100.00;102152.44;5055864;28;20036;-82
2022/12/04 10:28:10;;;;;;;7.93;5.82;;;;;;;2.02;100.00;102162.53;5058120;28;20079;-84
2022/12/04 10:30:40;;;;;;;8.18;4.65;;;;;;;1.97;100.00;102159.28;5059471;28;20036;-83
2022/12/04 10:33:24;;;;;;;13.50;4.55;;;;;;;2.07;100.00;102170.19;5057101;28;20033;-83
2022/12/04 10:35:52;;;;;;;6.47;3.50;;;;;;;1.89;100.00;102150.91;5060099;28;20476;-83
2022/12/04 10:38:34;;;;;;;5.85;3.80;;;;;;;2.08;100.00;102160.59;5061517;28;20090;-81
2022/12/04 10:41:05;;;;;;;6.75;4.82;;;;;;;1.99;100.00;102123.59;5056516;28;20028;-80
2022/12/04 10:43:37;;;;;;;11.07;5.90;;;;;;;2.07;100.00;102151.94;5055031;28;20020;-82
2022/12/04 10:46:03;;;;;;;14.75;5.28;;;;;;;2.12;100.00;102160.41;5056835;28;20029;-81
2022/12/04 10:48:34;;;;;;;8.70;5.05;;;;;;;2.19;100.00;102155.78;5056410;28;20029;-82
2022/12/04 10:51:00;;;;;;;7.32;5.15;;;;;;;1.89;100.00;102137.91;5058634;28;20111;-81
2022/12/04 10:53:31;;;;;;;10.07;5.07;;;;;;;2.10;100.00;102158.78;5056147;28;20112;-81
2022/12/04 10:56:27;;;;;;;7.35;5.45;;;;;;;1.91;100.00;102128.28;5058677;28;20468;-82
2022/12/04 10:59:03;;;;;;;5.90;4.28;;;;;;;2.28;100.00;102150.19;5072989;28;20059;-81
2022/12/04 11:01:30;;;;;;;6.95;3.92;;;;;;;2.16;100.00;102132.50;5056040;28;20033;-82
2022/12/04 11:04:04;;;;;;;7.57;4.75;;;;;;;2.30;100.00;102144.94;5057113;28;20576;-81
2022/12/04 11:06:30;;;;;;;6.97;3.67;;;;;;;2.30;100.00;102150.13;5063634;28;20110;-80
2022/12/04 11:08:58;;;;;;;10.23;5.22;;;;;;;2.39;100.00;102147.13;5039476;28;20025;-81
2022/12/04 11:11:27;;;;;;;8.13;3.90;;;;;;;2.19;100.00;102124.53;5063822;28;20021;-81
2022/12/04 11:14:11;;;;;;;7.03;4.10;;;;;;;2.35;100.00;102140.34;5054095;28;20029;-82
2022/12/04 11:16:40;;;;;;;7.93;3.85;;;;;;;2.43;100.00;102133.06;5058179;28;20024;-81
2022/12/04 11:19:23;;;;;;;5.00;3.95;;;;;;;2.47;100.00;102140.69;5055880;28;20108;-81
2022/12/04 11:21:49;;;;;;;4.90;2.83;;;;;;;2.39;100.00;102114.09;5058146;28;20024;-81
2022/12/04 11:24:29;;;;;;;4.20;3.65;;;;;;;2.36;100.00;102134.25;5057671;28;20037;-81
2022/12/04 11:26:55;;;;;;;6.70;3.08;;;;;;;2.38;100.00;102135.88;5055184;28;20069;-81
2022/12/04 11:29:31;;;;;;;4.90;4.05;;;;;;;2.42;100.00;102129.63;5040882;28;20086;-81
2022/12/04 11:31:57;;;;;;;10.65;4.70;;;;;;;2.44;100.00;102119.97;5057654;28;20071;-81
2022/12/04 11:34:34;;;;;;;5.57;4.28;;;;;;;2.52;100.00;102108.38;5046949;28;20043;-81
2022/12/04 11:36:59;;;;;;;9.30;5.30;;;;;;;2.41;100.00;102116.66;5061251;28;20055;-82
2022/12/04 11:39:39;;;;;;;11.98;5.80;;;;;;;2.31;100.00;102117.94;5054916;28;20076;-82
2022/12/04 11:42:18;;;;;;;8.65;4.55;;;;;;;2.05;100.00;102112.94;5056647;28;20483;-82
2022/12/04 11:45:01;;;;;;;5.97;3.65;;;;;;;2.43;100.00;102128.69;5054517;28;20571;-81
2022/12/04 11:47:31;;;;;;;7.20;4.38;;;;;;;2.33;100.00;102122.22;5055897;28;20055;-81